sensor_id;sensor_type;location;lat;lon;timestamp;temperature;humidity
820;DHT22;392;48.838;2.322;2023-08-01T00:00:22;19.70;90.40
820;DHT22;392;48.838;2.322;2023-08-01T00:02:51;19.60;90.30
820;DHT22;392;48.838;2.322;2023-08-01T00:05:20;19.60;90.30
820;DHT22;392;48.838;2.322;2023-08-01T00:07:47;19.60;90.60
820;DHT22;392;48.838;2.322;2023-08-01T00:10:14;19.60;90.40
820;DHT22;392;48.838;2.322;2023-08-01T00:12:42;19.60;90.10
820;DHT22;392;48.838;2.322;2023-08-01T00:15:09;19.60;89.60
820;DHT22;392;48.838;2.322;2023-08-01T00:17:37;19.60;89.60
820;DHT22;392;48.838;2.322;2023-08-01T00:20:06;19.60;89.70
820;DHT22;392;48.838;2.322;2023-08-01T00:22:35;19.60;89.60
820;DHT22;392;48.838;2.322;2023-08-01T00:25:03;19.70;89.80
820;DHT22;392;48.838;2.322;2023-08-01T00:27:31;19.60;89.60
820;DHT22;392;48.838;2.322;2023-08-01T00:29:59;19.60;89.60
820;DHT22;392;48.838;2.322;2023-08-01T00:32:26;19.70;89.00
820;DHT22;392;48.838;2.322;2023-08-01T00:34:53;19.70;89.10
820;DHT22;392;48.838;2.322;2023-08-01T00:37:21;19.70;88.80
820;DHT22;392;48.838;2.322;2023-08-01T00:39:50;19.70;88.60
820;DHT22;392;48.838;2.322;2023-08-01T00:42:17;19.70;88.80
820;DHT22;392;48.838;2.322;2023-08-01T00:44:44;19.60;89.80
820;DHT22;392;48.838;2.322;2023-08-01T00:47:13;19.60;89.60
820;DHT22;392;48.838;2.322;2023-08-01T00:49:42;19.60;89.60
820;DHT22;392;48.838;2.322;2023-08-01T00:52:10;19.60;89.60
820;DHT22;392;48.838;2.322;2023-08-01T00:54:38;19.60;89.60
820;DHT22;392;48.838;2.322;2023-08-01T00:57:07;19.60;89.80
820;DHT22;392;48.838;2.322;2023-08-01T00:59:35;19.60;90.10
820;DHT22;392;48.838;2.322;2023-08-01T01:02:02;19.50;90.10
820;DHT22;392;48.838;2.322;2023-08-01T01:04:30;19.50;90.20
820;DHT22;392;48.838;2.322;2023-08-01T01:07:00;19.50;90.40
820;DHT22;392;48.838;2.322;2023-08-01T01:09:30;19.50;90.60
820;DHT22;392;48.838;2.322;2023-08-01T01:11:58;19.60;90.20
820;DHT22;392;48.838;2.322;2023-08-01T01:14:27;19.60;89.70
820;DHT22;392;48.838;2.322;2023-08-01T01:16:55;19.60;89.60
820;DHT22;392;48.838;2.322;2023-08-01T01:19:23;19.60;89.60
820;DHT22;392;48.838;2.322;2023-08-01T01:21:51;19.60;89.60
820;DHT22;392;48.838;2.322;2023-08-01T01:24:19;19.60;89.90
820;DHT22;392;48.838;2.322;2023-08-01T01:26:49;19.60;90.00
820;DHT22;392;48.838;2.322;2023-08-01T01:29:16;19.60;90.10
820;DHT22;392;48.838;2.322;2023-08-01T01:31:44;19.60;90.20
820;DHT22;392;48.838;2.322;2023-08-01T01:34:12;19.60;90.20
820;DHT22;392;48.838;2.322;2023-08-01T01:36:39;19.70;89.70
820;DHT22;392;48.838;2.322;2023-08-01T01:39:08;19.70;89.70
820;DHT22;392;48.838;2.322;2023-08-01T01:41:35;19.80;89.80
820;DHT22;392;48.838;2.322;2023-08-01T01:44:03;19.70;89.30
820;DHT22;392;48.838;2.322;2023-08-01T01:46:31;19.50;90.30
820;DHT22;392;48.838;2.322;2023-08-01T01:48:58;19.40;91.70
820;DHT22;392;48.838;2.322;2023-08-01T01:51:25;19.30;92.50
820;DHT22;392;48.838;2.322;2023-08-01T01:53:53;19.20;93.30
820;DHT22;392;48.838;2.322;2023-08-01T01:56:23;19.20;93.10
820;DHT22;392;48.838;2.322;2023-08-01T01:58:51;19.10;93.50
820;DHT22;392;48.838;2.322;2023-08-01T02:01:18;19.10;93.70
820;DHT22;392;48.838;2.322;2023-08-01T02:03:45;19.10;93.90
820;DHT22;392;48.838;2.322;2023-08-01T02:06:14;19.10;93.90
820;DHT22;392;48.838;2.322;2023-08-01T02:08:41;19.00;94.00
820;DHT22;392;48.838;2.322;2023-08-01T02:11:08;19.00;94.20
820;DHT22;392;48.838;2.322;2023-08-01T02:13:37;18.90;94.00
820;DHT22;392;48.838;2.322;2023-08-01T02:16:04;18.80;94.20
820;DHT22;392;48.838;2.322;2023-08-01T02:18:31;18.80;94.50
820;DHT22;392;48.838;2.322;2023-08-01T02:20:59;18.70;95.20
820;DHT22;392;48.838;2.322;2023-08-01T02:23:26;18.70;95.90
820;DHT22;392;48.838;2.322;2023-08-01T02:25:54;18.70;95.80
820;DHT22;392;48.838;2.322;2023-08-01T02:28:22;18.70;95.80
820;DHT22;392;48.838;2.322;2023-08-01T02:30:51;18.60;95.80
820;DHT22;392;48.838;2.322;2023-08-01T02:33:18;18.60;95.90
820;DHT22;392;48.838;2.322;2023-08-01T02:35:46;18.60;95.70
820;DHT22;392;48.838;2.322;2023-08-01T02:38:13;18.60;95.60
820;DHT22;392;48.838;2.322;2023-08-01T02:40:40;18.60;95.20
820;DHT22;392;48.838;2.322;2023-08-01T02:43:08;18.60;95.10
820;DHT22;392;48.838;2.322;2023-08-01T02:45:35;18.60;95.10
820;DHT22;392;48.838;2.322;2023-08-01T02:48:04;18.60;94.90
820;DHT22;392;48.838;2.322;2023-08-01T02:50:32;18.60;94.70
820;DHT22;392;48.838;2.322;2023-08-01T02:52:59;18.60;94.30
820;DHT22;392;48.838;2.322;2023-08-01T02:55:26;18.50;94.00
820;DHT22;392;48.838;2.322;2023-08-01T02:57:53;18.60;94.00
820;DHT22;392;48.838;2.322;2023-08-01T03:00:20;18.60;93.70
820;DHT22;392;48.838;2.322;2023-08-01T03:02:48;18.50;93.40
820;DHT22;392;48.838;2.322;2023-08-01T03:05:16;18.50;93.80
820;DHT22;392;48.838;2.322;2023-08-01T03:07:44;18.50;94.00
820;DHT22;392;48.838;2.322;2023-08-01T03:10:11;18.50;94.00
820;DHT22;392;48.838;2.322;2023-08-01T03:12:38;18.40;93.80
820;DHT22;392;48.838;2.322;2023-08-01T03:15:07;18.40;93.10
820;DHT22;392;48.838;2.322;2023-08-01T03:17:35;18.40;92.50
820;DHT22;392;48.838;2.322;2023-08-01T03:20:03;18.50;92.00
820;DHT22;392;48.838;2.322;2023-08-01T03:22:32;18.50;90.90
820;DHT22;392;48.838;2.322;2023-08-01T03:24:59;18.50;89.70
820;DHT22;392;48.838;2.322;2023-08-01T03:27:32;18.50;88.60
820;DHT22;392;48.838;2.322;2023-08-01T03:30:00;18.50;87.50
820;DHT22;392;48.838;2.322;2023-08-01T03:32:28;18.50;86.80
820;DHT22;392;48.838;2.322;2023-08-01T03:34:55;18.40;86.10
820;DHT22;392;48.838;2.322;2023-08-01T03:37:24;18.40;85.50
820;DHT22;392;48.838;2.322;2023-08-01T03:39:52;18.30;86.10
820;DHT22;392;48.838;2.322;2023-08-01T03:42:19;18.30;86.90
820;DHT22;392;48.838;2.322;2023-08-01T03:44:47;18.30;86.20
820;DHT22;392;48.838;2.322;2023-08-01T03:47:14;18.30;86.20
820;DHT22;392;48.838;2.322;2023-08-01T03:49:41;18.30;84.20
820;DHT22;392;48.838;2.322;2023-08-01T03:52:09;18.30;82.60
820;DHT22;392;48.838;2.322;2023-08-01T03:54:36;18.30;83.00
820;DHT22;392;48.838;2.322;2023-08-01T03:57:05;18.30;79.60
820;DHT22;392;48.838;2.322;2023-08-01T03:59:34;18.40;78.00
820;DHT22;392;48.838;2.322;2023-08-01T04:02:04;18.30;77.60
820;DHT22;392;48.838;2.322;2023-08-01T04:04:31;18.30;76.40
820;DHT22;392;48.838;2.322;2023-08-01T04:06:58;18.30;77.20
820;DHT22;392;48.838;2.322;2023-08-01T04:09:26;18.20;76.40
820;DHT22;392;48.838;2.322;2023-08-01T04:11:53;18.20;75.60
820;DHT22;392;48.838;2.322;2023-08-01T04:14:21;18.10;75.00
820;DHT22;392;48.838;2.322;2023-08-01T04:16:49;18.00;75.90
820;DHT22;392;48.838;2.322;2023-08-01T04:19:16;18.00;77.80
820;DHT22;392;48.838;2.322;2023-08-01T04:21:43;18.00;78.00
820;DHT22;392;48.838;2.322;2023-08-01T04:24:10;17.90;79.10
820;DHT22;392;48.838;2.322;2023-08-01T04:26:38;17.80;79.90
820;DHT22;392;48.838;2.322;2023-08-01T04:29:05;17.80;80.70
820;DHT22;392;48.838;2.322;2023-08-01T04:31:34;17.80;80.80
820;DHT22;392;48.838;2.322;2023-08-01T04:34:01;17.90;80.00
820;DHT22;392;48.838;2.322;2023-08-01T04:36:28;17.90;77.20
820;DHT22;392;48.838;2.322;2023-08-01T04:38:55;18.00;76.80
820;DHT22;392;48.838;2.322;2023-08-01T04:41:23;17.90;75.30
820;DHT22;392;48.838;2.322;2023-08-01T04:43:50;17.80;75.90
820;DHT22;392;48.838;2.322;2023-08-01T04:46:18;17.80;76.70
820;DHT22;392;48.838;2.322;2023-08-01T04:48:46;17.80;77.20
820;DHT22;392;48.838;2.322;2023-08-01T04:51:13;17.70;77.10
820;DHT22;392;48.838;2.322;2023-08-01T04:53:41;17.70;77.20
820;DHT22;392;48.838;2.322;2023-08-01T04:56:08;17.60;76.90
820;DHT22;392;48.838;2.322;2023-08-01T04:58:35;17.50;78.30
820;DHT22;392;48.838;2.322;2023-08-01T05:01:03;17.50;78.90
820;DHT22;392;48.838;2.322;2023-08-01T05:03:30;17.50;78.90
820;DHT22;392;48.838;2.322;2023-08-01T05:05:58;17.40;78.60
820;DHT22;392;48.838;2.322;2023-08-01T05:08:26;17.50;78.90
820;DHT22;392;48.838;2.322;2023-08-01T05:10:53;17.60;76.60
820;DHT22;392;48.838;2.322;2023-08-01T05:13:20;17.50;75.70
820;DHT22;392;48.838;2.322;2023-08-01T05:15:47;17.50;76.50
820;DHT22;392;48.838;2.322;2023-08-01T05:18:16;17.60;75.50
820;DHT22;392;48.838;2.322;2023-08-01T05:20:44;17.90;82.10
820;DHT22;392;48.838;2.322;2023-08-01T05:23:12;18.20;77.70
820;DHT22;392;48.838;2.322;2023-08-01T05:25:40;18.30;70.60
820;DHT22;392;48.838;2.322;2023-08-01T05:28:07;18.30;67.50
820;DHT22;392;48.838;2.322;2023-08-01T05:30:34;18.30;66.00
820;DHT22;392;48.838;2.322;2023-08-01T05:33:01;18.20;67.30
820;DHT22;392;48.838;2.322;2023-08-01T05:35:29;18.20;67.40
820;DHT22;392;48.838;2.322;2023-08-01T05:37:56;18.20;67.60
820;DHT22;392;48.838;2.322;2023-08-01T05:40:25;18.20;67.00
820;DHT22;392;48.838;2.322;2023-08-01T05:42:53;18.20;66.20
820;DHT22;392;48.838;2.322;2023-08-01T05:45:20;18.10;66.20
820;DHT22;392;48.838;2.322;2023-08-01T05:47:47;18.20;68.00
820;DHT22;392;48.838;2.322;2023-08-01T05:50:15;18.20;66.80
820;DHT22;392;48.838;2.322;2023-08-01T05:52:42;18.30;66.00
820;DHT22;392;48.838;2.322;2023-08-01T05:55:09;18.30;65.10
820;DHT22;392;48.838;2.322;2023-08-01T05:57:38;18.30;63.50
820;DHT22;392;48.838;2.322;2023-08-01T06:00:07;18.20;62.90
820;DHT22;392;48.838;2.322;2023-08-01T06:02:41;18.10;64.20
820;DHT22;392;48.838;2.322;2023-08-01T06:05:08;18.10;64.70
820;DHT22;392;48.838;2.322;2023-08-01T06:07:35;18.10;65.80
820;DHT22;392;48.838;2.322;2023-08-01T06:10:03;18.20;65.30
820;DHT22;392;48.838;2.322;2023-08-01T06:12:31;18.30;64.60
820;DHT22;392;48.838;2.322;2023-08-01T06:14:59;18.30;63.20
820;DHT22;392;48.838;2.322;2023-08-01T06:17:27;18.30;62.90
820;DHT22;392;48.838;2.322;2023-08-01T06:19:54;18.30;63.00
820;DHT22;392;48.838;2.322;2023-08-01T06:22:22;18.40;63.70
820;DHT22;392;48.838;2.322;2023-08-01T06:24:49;18.50;65.80
820;DHT22;392;48.838;2.322;2023-08-01T06:27:16;18.90;64.40
820;DHT22;392;48.838;2.322;2023-08-01T06:29:43;19.50;59.90
820;DHT22;392;48.838;2.322;2023-08-01T06:32:12;20.20;52.10
820;DHT22;392;48.838;2.322;2023-08-01T06:34:39;20.70;48.90
820;DHT22;392;48.838;2.322;2023-08-01T06:37:06;21.30;44.40
820;DHT22;392;48.838;2.322;2023-08-01T06:39:35;21.70;40.60
820;DHT22;392;48.838;2.322;2023-08-01T06:42:03;22.00;38.70
820;DHT22;392;48.838;2.322;2023-08-01T06:44:31;22.20;38.10
820;DHT22;392;48.838;2.322;2023-08-01T06:46:58;22.60;35.30
820;DHT22;392;48.838;2.322;2023-08-01T06:49:27;22.80;33.80
820;DHT22;392;48.838;2.322;2023-08-01T06:51:54;22.80;33.80
820;DHT22;392;48.838;2.322;2023-08-01T06:54:21;22.80;33.90
820;DHT22;392;48.838;2.322;2023-08-01T06:56:49;23.10;33.00
820;DHT22;392;48.838;2.322;2023-08-01T06:59:16;23.40;31.10
820;DHT22;392;48.838;2.322;2023-08-01T07:01:44;23.60;30.30
820;DHT22;392;48.838;2.322;2023-08-01T07:04:11;23.40;29.90
820;DHT22;392;48.838;2.322;2023-08-01T07:06:40;23.00;30.40
820;DHT22;392;48.838;2.322;2023-08-01T07:09:08;22.50;31.50
820;DHT22;392;48.838;2.322;2023-08-01T07:11:36;22.00;34.60
820;DHT22;392;48.838;2.322;2023-08-01T07:14:03;21.80;34.80
820;DHT22;392;48.838;2.322;2023-08-01T07:16:30;21.70;35.70
820;DHT22;392;48.838;2.322;2023-08-01T07:19:00;21.60;36.60
820;DHT22;392;48.838;2.322;2023-08-01T07:21:27;21.80;36.70
820;DHT22;392;48.838;2.322;2023-08-01T07:23:56;22.30;35.00
820;DHT22;392;48.838;2.322;2023-08-01T07:26:24;22.60;32.50
820;DHT22;392;48.838;2.322;2023-08-01T07:28:54;22.60;32.20
820;DHT22;392;48.838;2.322;2023-08-01T07:31:21;22.90;31.10
820;DHT22;392;48.838;2.322;2023-08-01T07:33:49;23.20;30.50
820;DHT22;392;48.838;2.322;2023-08-01T07:36:17;23.60;29.80
820;DHT22;392;48.838;2.322;2023-08-01T07:38:45;24.00;28.00
820;DHT22;392;48.838;2.322;2023-08-01T07:41:13;24.00;27.30
820;DHT22;392;48.838;2.322;2023-08-01T07:43:40;23.70;28.30
820;DHT22;392;48.838;2.322;2023-08-01T07:46:08;23.50;28.00
820;DHT22;392;48.838;2.322;2023-08-01T07:48:38;23.10;29.30
820;DHT22;392;48.838;2.322;2023-08-01T07:51:05;22.70;30.20
820;DHT22;392;48.838;2.322;2023-08-01T07:53:33;22.40;31.30
820;DHT22;392;48.838;2.322;2023-08-01T07:56:00;22.10;32.90
820;DHT22;392;48.838;2.322;2023-08-01T07:58:29;21.80;33.30
820;DHT22;392;48.838;2.322;2023-08-01T08:00:57;21.50;34.30
820;DHT22;392;48.838;2.322;2023-08-01T08:03:29;21.50;36.70
820;DHT22;392;48.838;2.322;2023-08-01T08:05:57;21.70;34.80
820;DHT22;392;48.838;2.322;2023-08-01T08:08:24;21.70;34.60
820;DHT22;392;48.838;2.322;2023-08-01T08:10:52;21.70;33.80
820;DHT22;392;48.838;2.322;2023-08-01T08:13:19;21.50;34.30
820;DHT22;392;48.838;2.322;2023-08-01T08:15:48;21.40;35.30
820;DHT22;392;48.838;2.322;2023-08-01T08:18:15;21.30;37.50
820;DHT22;392;48.838;2.322;2023-08-01T08:20:45;21.50;36.70
820;DHT22;392;48.838;2.322;2023-08-01T08:23:13;21.70;36.50
820;DHT22;392;48.838;2.322;2023-08-01T08:25:40;21.90;34.80
820;DHT22;392;48.838;2.322;2023-08-01T08:28:08;22.10;34.80
820;DHT22;392;48.838;2.322;2023-08-01T08:30:35;22.20;33.50
820;DHT22;392;48.838;2.322;2023-08-01T08:33:04;22.70;33.70
820;DHT22;392;48.838;2.322;2023-08-01T08:35:32;23.50;29.70
820;DHT22;392;48.838;2.322;2023-08-01T08:38:02;24.50;27.30
820;DHT22;392;48.838;2.322;2023-08-01T08:40:32;25.70;23.30
820;DHT22;392;48.838;2.322;2023-08-01T08:43:01;26.50;21.00
820;DHT22;392;48.838;2.322;2023-08-01T08:45:34;26.70;20.10
820;DHT22;392;48.838;2.322;2023-08-01T08:48:09;26.50;20.50
820;DHT22;392;48.838;2.322;2023-08-01T08:50:41;25.80;21.30
820;DHT22;392;48.838;2.322;2023-08-01T08:53:10;25.10;22.80
820;DHT22;392;48.838;2.322;2023-08-01T08:55:39;24.30;24.30
820;DHT22;392;48.838;2.322;2023-08-01T08:58:07;24.50;24.40
820;DHT22;392;48.838;2.322;2023-08-01T09:00:36;24.80;23.30
820;DHT22;392;48.838;2.322;2023-08-01T09:03:05;24.50;23.70
820;DHT22;392;48.838;2.322;2023-08-01T09:05:37;24.10;24.10
820;DHT22;392;48.838;2.322;2023-08-01T09:08:10;24.00;25.60
820;DHT22;392;48.838;2.322;2023-08-01T09:10:40;24.50;23.80
820;DHT22;392;48.838;2.322;2023-08-01T09:13:07;25.60;21.90
820;DHT22;392;48.838;2.322;2023-08-01T09:15:35;26.90;19.30
820;DHT22;392;48.838;2.322;2023-08-01T09:18:07;28.30;15.60
820;DHT22;392;48.838;2.322;2023-08-01T09:20:42;28.30;15.90
820;DHT22;392;48.838;2.322;2023-08-01T09:23:10;27.80;16.30
820;DHT22;392;48.838;2.322;2023-08-01T09:25:38;27.20;17.70
820;DHT22;392;48.838;2.322;2023-08-01T09:28:18;27.30;16.90
820;DHT22;392;48.838;2.322;2023-08-01T09:30:47;27.30;16.70
820;DHT22;392;48.838;2.322;2023-08-01T09:33:17;27.90;16.00
820;DHT22;392;48.838;2.322;2023-08-01T09:35:45;28.90;14.40
820;DHT22;392;48.838;2.322;2023-08-01T09:38:13;29.00;13.90
820;DHT22;392;48.838;2.322;2023-08-01T09:40:42;28.40;14.60
820;DHT22;392;48.838;2.322;2023-08-01T09:43:11;28.40;15.00
820;DHT22;392;48.838;2.322;2023-08-01T09:45:49;28.60;14.20
820;DHT22;392;48.838;2.322;2023-08-01T09:48:26;27.90;14.40
820;DHT22;392;48.838;2.322;2023-08-01T09:51:04;27.00;15.90
820;DHT22;392;48.838;2.322;2023-08-01T09:53:33;26.20;17.70
820;DHT22;392;48.838;2.322;2023-08-01T09:56:01;25.90;19.20
820;DHT22;392;48.838;2.322;2023-08-01T09:58:32;26.70;18.70
820;DHT22;392;48.838;2.322;2023-08-01T10:01:00;27.50;15.90
820;DHT22;392;48.838;2.322;2023-08-01T10:03:30;27.30;15.80
820;DHT22;392;48.838;2.322;2023-08-01T10:05:59;26.80;16.40
820;DHT22;392;48.838;2.322;2023-08-01T10:08:27;26.00;17.70
820;DHT22;392;48.838;2.322;2023-08-01T10:10:57;25.20;19.30
820;DHT22;392;48.838;2.322;2023-08-01T10:13:25;24.70;20.50
820;DHT22;392;48.838;2.322;2023-08-01T10:15:54;24.50;20.80
820;DHT22;392;48.838;2.322;2023-08-01T10:18:22;24.30;21.20
820;DHT22;392;48.838;2.322;2023-08-01T10:20:52;24.00;21.60
820;DHT22;392;48.838;2.322;2023-08-01T10:23:19;23.60;21.40
820;DHT22;392;48.838;2.322;2023-08-01T10:25:47;23.30;22.60
820;DHT22;392;48.838;2.322;2023-08-01T10:28:14;23.60;21.50
820;DHT22;392;48.838;2.322;2023-08-01T10:30:41;24.00;21.50
820;DHT22;392;48.838;2.322;2023-08-01T10:33:08;24.60;20.80
820;DHT22;392;48.838;2.322;2023-08-01T10:35:39;25.50;19.50
820;DHT22;392;48.838;2.322;2023-08-01T10:38:09;26.30;18.00
820;DHT22;392;48.838;2.322;2023-08-01T10:40:39;26.10;17.50
820;DHT22;392;48.838;2.322;2023-08-01T10:43:19;25.60;17.90
820;DHT22;392;48.838;2.322;2023-08-01T10:45:48;25.20;18.90
820;DHT22;392;48.838;2.322;2023-08-01T10:48:15;24.80;19.10
820;DHT22;392;48.838;2.322;2023-08-01T10:50:42;24.40;19.20
820;DHT22;392;48.838;2.322;2023-08-01T10:53:11;24.10;20.00
820;DHT22;392;48.838;2.322;2023-08-01T10:55:40;23.60;20.60
820;DHT22;392;48.838;2.322;2023-08-01T10:58:11;23.50;21.40
820;DHT22;392;48.838;2.322;2023-08-01T11:00:39;23.90;20.60
820;DHT22;392;48.838;2.322;2023-08-01T11:03:06;24.10;20.40
820;DHT22;392;48.838;2.322;2023-08-01T11:05:33;24.10;20.60
820;DHT22;392;48.838;2.322;2023-08-01T11:08:02;24.10;20.60
820;DHT22;392;48.838;2.322;2023-08-01T11:10:33;24.10;20.70
820;DHT22;392;48.838;2.322;2023-08-01T11:13:00;24.00;19.80
820;DHT22;392;48.838;2.322;2023-08-01T11:15:27;24.40;18.90
820;DHT22;392;48.838;2.322;2023-08-01T11:17:55;25.00;17.60
820;DHT22;392;48.838;2.322;2023-08-01T11:20:24;25.20;17.30
820;DHT22;392;48.838;2.322;2023-08-01T11:22:53;25.10;17.70
820;DHT22;392;48.838;2.322;2023-08-01T11:25:38;25.30;18.30
820;DHT22;392;48.838;2.322;2023-08-01T11:28:07;26.00;17.00
820;DHT22;392;48.838;2.322;2023-08-01T11:30:36;26.40;15.60
820;DHT22;392;48.838;2.322;2023-08-01T11:33:13;26.80;15.20
820;DHT22;392;48.838;2.322;2023-08-01T11:35:41;27.30;14.00
820;DHT22;392;48.838;2.322;2023-08-01T11:38:09;28.20;12.50
820;DHT22;392;48.838;2.322;2023-08-01T11:40:39;28.80;11.60
820;DHT22;392;48.838;2.322;2023-08-01T11:43:07;29.30;10.80
820;DHT22;392;48.838;2.322;2023-08-01T11:45:34;30.20;8.60
820;DHT22;392;48.838;2.322;2023-08-01T11:48:02;30.70;7.40
820;DHT22;392;48.838;2.322;2023-08-01T11:50:29;30.60;7.00
820;DHT22;392;48.838;2.322;2023-08-01T11:52:57;30.20;7.30
820;DHT22;392;48.838;2.322;2023-08-01T11:55:26;29.50;8.30
820;DHT22;392;48.838;2.322;2023-08-01T11:57:57;28.70;9.60
820;DHT22;392;48.838;2.322;2023-08-01T12:00:26;27.70;11.40
820;DHT22;392;48.838;2.322;2023-08-01T12:03:05;27.10;12.30
820;DHT22;392;48.838;2.322;2023-08-01T12:05:33;27.00;12.70
820;DHT22;392;48.838;2.322;2023-08-01T12:08:11;26.80;12.60
820;DHT22;392;48.838;2.322;2023-08-01T12:10:40;26.60;13.30
820;DHT22;392;48.838;2.322;2023-08-01T12:13:20;26.30;13.50
820;DHT22;392;48.838;2.322;2023-08-01T12:15:49;26.90;12.80
820;DHT22;392;48.838;2.322;2023-08-01T12:18:23;27.90;11.90
820;DHT22;392;48.838;2.322;2023-08-01T12:20:51;28.70;10.20
820;DHT22;392;48.838;2.322;2023-08-01T12:23:19;29.30;9.30
820;DHT22;392;48.838;2.322;2023-08-01T12:25:47;29.80;9.10
820;DHT22;392;48.838;2.322;2023-08-01T12:28:15;30.00;8.00
820;DHT22;392;48.838;2.322;2023-08-01T12:30:44;30.40;7.80
820;DHT22;392;48.838;2.322;2023-08-01T12:33:12;30.60;7.20
820;DHT22;392;48.838;2.322;2023-08-01T12:35:39;30.00;7.70
820;DHT22;392;48.838;2.322;2023-08-01T12:38:07;29.30;9.00
820;DHT22;392;48.838;2.322;2023-08-01T12:40:35;28.90;10.00
820;DHT22;392;48.838;2.322;2023-08-01T12:43:02;28.90;10.00
820;DHT22;392;48.838;2.322;2023-08-01T12:45:29;28.80;10.30
820;DHT22;392;48.838;2.322;2023-08-01T12:47:58;29.00;9.50
820;DHT22;392;48.838;2.322;2023-08-01T12:50:25;29.10;9.50
820;DHT22;392;48.838;2.322;2023-08-01T12:52:52;28.90;9.30
820;DHT22;392;48.838;2.322;2023-08-01T12:55:20;28.30;9.80
820;DHT22;392;48.838;2.322;2023-08-01T12:57:48;28.00;10.70
820;DHT22;392;48.838;2.322;2023-08-01T13:00:15;27.90;10.50
820;DHT22;392;48.838;2.322;2023-08-01T13:02:43;27.70;10.80
820;DHT22;392;48.838;2.322;2023-08-01T13:05:12;27.50;10.70
820;DHT22;392;48.838;2.322;2023-08-01T13:07:39;27.20;11.60
820;DHT22;392;48.838;2.322;2023-08-01T13:10:07;27.00;12.50
820;DHT22;392;48.838;2.322;2023-08-01T13:12:34;26.70;13.60
820;DHT22;392;48.838;2.322;2023-08-01T13:15:02;26.10;14.50
820;DHT22;392;48.838;2.322;2023-08-01T13:17:30;25.80;15.40
820;DHT22;392;48.838;2.322;2023-08-01T13:19:57;25.60;16.40
820;DHT22;392;48.838;2.322;2023-08-01T13:22:26;25.60;17.30
820;DHT22;392;48.838;2.322;2023-08-01T13:24:53;25.60;18.20
820;DHT22;392;48.838;2.322;2023-08-01T13:27:20;25.80;18.20
820;DHT22;392;48.838;2.322;2023-08-01T13:29:48;26.00;18.50
820;DHT22;392;48.838;2.322;2023-08-01T13:32:17;26.30;18.30
820;DHT22;392;48.838;2.322;2023-08-01T13:34:45;26.60;17.80
820;DHT22;392;48.838;2.322;2023-08-01T13:37:13;26.90;17.40
820;DHT22;392;48.838;2.322;2023-08-01T13:39:42;26.90;17.00
820;DHT22;392;48.838;2.322;2023-08-01T13:42:11;26.60;17.30
820;DHT22;392;48.838;2.322;2023-08-01T13:44:39;26.30;17.40
820;DHT22;392;48.838;2.322;2023-08-01T13:47:07;26.20;18.30
820;DHT22;392;48.838;2.322;2023-08-01T13:49:35;26.30;18.90
820;DHT22;392;48.838;2.322;2023-08-01T13:52:03;26.20;18.20
820;DHT22;392;48.838;2.322;2023-08-01T13:54:32;26.10;18.60
820;DHT22;392;48.838;2.322;2023-08-01T13:57:00;26.00;18.50
820;DHT22;392;48.838;2.322;2023-08-01T13:59:27;25.90;18.50
820;DHT22;392;48.838;2.322;2023-08-01T14:01:56;25.80;18.70
820;DHT22;392;48.838;2.322;2023-08-01T14:04:23;25.70;18.80
820;DHT22;392;48.838;2.322;2023-08-01T14:06:50;25.60;18.50
820;DHT22;392;48.838;2.322;2023-08-01T14:09:18;25.50;18.20
820;DHT22;392;48.838;2.322;2023-08-01T14:11:45;25.10;19.20
820;DHT22;392;48.838;2.322;2023-08-01T14:14:13;24.90;19.90
820;DHT22;392;48.838;2.322;2023-08-01T14:16:41;24.80;20.20
820;DHT22;392;48.838;2.322;2023-08-01T14:19:08;25.00;20.40
820;DHT22;392;48.838;2.322;2023-08-01T14:21:35;25.10;20.20
820;DHT22;392;48.838;2.322;2023-08-01T14:24:03;25.10;19.80
820;DHT22;392;48.838;2.322;2023-08-01T14:26:30;24.70;20.30
820;DHT22;392;48.838;2.322;2023-08-01T14:28:57;24.20;21.30
820;DHT22;392;48.838;2.322;2023-08-01T14:31:26;23.90;22.50
820;DHT22;392;48.838;2.322;2023-08-01T14:33:53;23.70;22.50
820;DHT22;392;48.838;2.322;2023-08-01T14:36:20;23.50;23.00
820;DHT22;392;48.838;2.322;2023-08-01T14:38:48;23.40;23.30
820;DHT22;392;48.838;2.322;2023-08-01T14:41:20;23.40;23.70
820;DHT22;392;48.838;2.322;2023-08-01T14:43:47;23.30;23.90
820;DHT22;392;48.838;2.322;2023-08-01T14:46:14;23.30;24.30
820;DHT22;392;48.838;2.322;2023-08-01T14:48:43;23.30;24.40
820;DHT22;392;48.838;2.322;2023-08-01T14:51:10;23.40;24.30
820;DHT22;392;48.838;2.322;2023-08-01T14:53:37;23.50;24.10
820;DHT22;392;48.838;2.322;2023-08-01T14:56:05;23.50;23.90
820;DHT22;392;48.838;2.322;2023-08-01T14:58:34;23.60;23.90
820;DHT22;392;48.838;2.322;2023-08-01T15:01:04;23.70;23.40
820;DHT22;392;48.838;2.322;2023-08-01T15:03:32;23.70;23.00
820;DHT22;392;48.838;2.322;2023-08-01T15:06:06;23.50;23.40
820;DHT22;392;48.838;2.322;2023-08-01T15:08:34;23.50;23.70
820;DHT22;392;48.838;2.322;2023-08-01T15:11:05;23.40;23.80
820;DHT22;392;48.838;2.322;2023-08-01T15:13:33;23.40;24.20
820;DHT22;392;48.838;2.322;2023-08-01T15:16:00;23.40;24.30
820;DHT22;392;48.838;2.322;2023-08-01T15:18:28;23.50;24.20
820;DHT22;392;48.838;2.322;2023-08-01T15:20:55;23.60;24.30
820;DHT22;392;48.838;2.322;2023-08-01T15:23:24;23.50;24.30
820;DHT22;392;48.838;2.322;2023-08-01T15:25:53;23.50;24.60
820;DHT22;392;48.838;2.322;2023-08-01T15:28:21;23.30;24.60
820;DHT22;392;48.838;2.322;2023-08-01T15:30:49;23.20;25.00
820;DHT22;392;48.838;2.322;2023-08-01T15:33:17;23.20;26.80
820;DHT22;392;48.838;2.322;2023-08-01T15:35:44;23.00;29.00
820;DHT22;392;48.838;2.322;2023-08-01T15:38:11;22.90;30.30
820;DHT22;392;48.838;2.322;2023-08-01T15:40:40;22.60;32.70
820;DHT22;392;48.838;2.322;2023-08-01T15:43:07;22.50;34.50
820;DHT22;392;48.838;2.322;2023-08-01T15:45:34;22.50;34.50
820;DHT22;392;48.838;2.322;2023-08-01T15:48:02;22.50;34.50
820;DHT22;392;48.838;2.322;2023-08-01T15:50:29;22.60;33.30
820;DHT22;392;48.838;2.322;2023-08-01T15:52:57;22.60;33.50
820;DHT22;392;48.838;2.322;2023-08-01T15:55:24;22.60;34.20
820;DHT22;392;48.838;2.322;2023-08-01T15:57:52;22.70;33.80
820;DHT22;392;48.838;2.322;2023-08-01T16:00:20;22.80;32.90
820;DHT22;392;48.838;2.322;2023-08-01T16:02:48;22.90;31.30
820;DHT22;392;48.838;2.322;2023-08-01T16:05:15;23.00;31.20
820;DHT22;392;48.838;2.322;2023-08-01T16:07:42;23.30;29.80
820;DHT22;392;48.838;2.322;2023-08-01T16:10:10;23.50;28.50
820;DHT22;392;48.838;2.322;2023-08-01T16:12:37;23.50;27.70
820;DHT22;392;48.838;2.322;2023-08-01T16:15:07;23.40;26.90
820;DHT22;392;48.838;2.322;2023-08-01T16:17:35;23.30;27.40
820;DHT22;392;48.838;2.322;2023-08-01T16:20:03;23.20;28.00
820;DHT22;392;48.838;2.322;2023-08-01T16:22:31;23.30;27.30
820;DHT22;392;48.838;2.322;2023-08-01T16:24:58;23.20;26.60
820;DHT22;392;48.838;2.322;2023-08-01T16:27:25;23.20;26.30
820;DHT22;392;48.838;2.322;2023-08-01T16:29:52;23.20;26.30
820;DHT22;392;48.838;2.322;2023-08-01T16:32:21;23.20;26.30
820;DHT22;392;48.838;2.322;2023-08-01T16:34:49;23.00;26.20
820;DHT22;392;48.838;2.322;2023-08-01T16:37:16;22.90;25.70
820;DHT22;392;48.838;2.322;2023-08-01T16:39:43;22.90;26.40